sensor_id;sensor_type;location;lat;lon;timestamp;pressure;altitude;pressure_sealevel;temperature;humidity
7834;BME280;3962;42.696;23.354;2023-02-18T00:02:04;95937.94;;;4.67;64.96
7834;BME280;3962;42.696;23.354;2023-02-18T00:04:53;95937.94;;;4.67;65.42
7834;BME280;3962;42.696;23.354;2023-02-18T00:07:21;95937.78;;;4.70;64.94
7834;BME280;3962;42.696;23.354;2023-02-18T00:09:48;95939.19;;;4.61;64.70
7834;BME280;3962;42.696;23.354;2023-02-18T00:12:15;95935.59;;;4.62;65.04
7834;BME280;3962;42.696;23.354;2023-02-18T00:14:42;95940.88;;;4.62;65.50
7834;BME280;3962;42.696;23.354;2023-02-18T00:20:49;95909.09;;;4.37;65.20
7834;BME280;3962;42.696;23.354;2023-02-18T00:23:20;95907.50;;;4.35;65.53
7834;BME280;3962;42.696;23.354;2023-02-18T00:26:05;95910.25;;;4.33;65.31
7834;BME280;3962;42.696;23.354;2023-02-18T00:28:33;95906.38;;;4.25;66.03
7834;BME280;3962;42.696;23.354;2023-02-18T00:31:07;95896.22;;;4.19;66.44
7834;BME280;3962;42.696;23.354;2023-02-18T00:33:34;95892.75;;;4.18;66.35
7834;BME280;3962;42.696;23.354;2023-02-18T00:39:16;95890.28;;;4.29;66.53
7834;BME280;3962;42.696;23.354;2023-02-18T00:42:04;95893.50;;;4.34;66.82
7834;BME280;3962;42.696;23.354;2023-02-18T00:44:35;95893.56;;;4.33;66.78
7834;BME280;3962;42.696;23.354;2023-02-18T00:47:07;95893.97;;;3.99;65.90
7834;BME280;3962;42.696;23.354;2023-02-18T00:49:38;95889.03;;;3.79;66.03
7834;BME280;3962;42.696;23.354;2023-02-18T00:52:24;95885.91;;;3.58;67.03
7834;BME280;3962;42.696;23.354;2023-02-18T00:54:55;95877.75;;;3.63;67.50
7834;BME280;3962;42.696;23.354;2023-02-18T00:57:41;95879.44;;;3.64;67.27
7834;BME280;3962;42.696;23.354;2023-02-18T01:00:11;95882.00;;;3.65;67.78
7834;BME280;3962;42.696;23.354;2023-02-18T01:02:39;95880.22;;;3.66;67.42
7834;BME280;3962;42.696;23.354;2023-02-18T01:05:06;95888.84;;;3.68;67.18
7834;BME280;3962;42.696;23.354;2023-02-18T01:07:36;95892.78;;;3.61;66.88
7834;BME280;3962;42.696;23.354;2023-02-18T01:10:07;95891.25;;;3.43;67.35
7834;BME280;3962;42.696;23.354;2023-02-18T01:12:34;95891.91;;;3.17;67.66
7834;BME280;3962;42.696;23.354;2023-02-18T01:15:02;95884.34;;;2.97;67.64
7834;BME280;3962;42.696;23.354;2023-02-18T01:17:29;95877.06;;;2.87;68.89
7834;BME280;3962;42.696;23.354;2023-02-18T01:20:07;95872.75;;;2.86;69.28
7834;BME280;3962;42.696;23.354;2023-02-18T01:22:36;95881.63;;;2.83;68.75
7834;BME280;3962;42.696;23.354;2023-02-18T01:25:06;95887.22;;;2.77;69.01
7834;BME280;3962;42.696;23.354;2023-02-18T01:27:37;95875.38;;;2.86;69.55
7834;BME280;3962;42.696;23.354;2023-02-18T01:30:05;95874.44;;;2.87;69.87
7834;BME280;3962;42.696;23.354;2023-02-18T01:32:50;95867.97;;;2.92;69.46
7834;BME280;3962;42.696;23.354;2023-02-18T01:35:31;95876.19;;;2.86;70.08
7834;BME280;3962;42.696;23.354;2023-02-18T01:41:29;95874.50;;;3.01;69.32
7834;BME280;3962;42.696;23.354;2023-02-18T01:44:15;95873.22;;;3.08;69.61
7834;BME280;3962;42.696;23.354;2023-02-18T01:50:22;95885.69;;;3.04;69.09
7834;BME280;3962;42.696;23.354;2023-02-18T01:52:49;95886.09;;;2.97;69.46
7834;BME280;3962;42.696;23.354;2023-02-18T01:55:16;95891.06;;;2.72;68.79
7834;BME280;3962;42.696;23.354;2023-02-18T01:57:44;95899.38;;;2.49;69.50
7834;BME280;3962;42.696;23.354;2023-02-18T02:00:17;95891.13;;;2.39;70.44
7834;BME280;3962;42.696;23.354;2023-02-18T02:02:51;95884.44;;;2.18;70.41
7834;BME280;3962;42.696;23.354;2023-02-18T02:05:33;95880.59;;;2.08;71.47
7834;BME280;3962;42.696;23.354;2023-02-18T02:08:09;95875.97;;;2.13;72.69
7834;BME280;3962;42.696;23.354;2023-02-18T02:10:50;95867.47;;;2.08;73.44
7834;BME280;3962;42.696;23.354;2023-02-18T02:13:53;95872.00;;;2.22;73.56
7834;BME280;3962;42.696;23.354;2023-02-18T02:16:27;95871.22;;;2.20;71.88
7834;BME280;3962;42.696;23.354;2023-02-18T02:19:01;95876.81;;;2.14;72.09
7834;BME280;3962;42.696;23.354;2023-02-18T02:31:17;95884.13;;;2.40;71.40
7834;BME280;3962;42.696;23.354;2023-02-18T02:34:29;95884.03;;;2.57;71.66
7834;BME280;3962;42.696;23.354;2023-02-18T02:37:09;95870.03;;;2.72;71.90
7834;BME280;3962;42.696;23.354;2023-02-18T02:39:44;95871.81;;;2.87;71.70
7834;BME280;3962;42.696;23.354;2023-02-18T02:42:23;95863.09;;;3.16;71.76
7834;BME280;3962;42.696;23.354;2023-02-18T02:45:03;95864.44;;;3.23;70.73
7834;BME280;3962;42.696;23.354;2023-02-18T02:47:45;95864.56;;;3.35;70.66
7834;BME280;3962;42.696;23.354;2023-02-18T02:50:27;95863.47;;;3.53;69.92
7834;BME280;3962;42.696;23.354;2023-02-18T02:52:59;95865.06;;;3.55;68.92
7834;BME280;3962;42.696;23.354;2023-02-18T02:55:28;95870.97;;;3.45;68.27
7834;BME280;3962;42.696;23.354;2023-02-18T02:57:56;95886.06;;;3.42;68.75
7834;BME280;3962;42.696;23.354;2023-02-18T03:00:32;95882.28;;;3.32;68.96
7834;BME280;3962;42.696;23.354;2023-02-18T03:03:16;95884.59;;;3.22;68.95
7834;BME280;3962;42.696;23.354;2023-02-18T03:06:04;95879.47;;;3.05;69.38
7834;BME280;3962;42.696;23.354;2023-02-18T03:08:45;95886.03;;;2.98;69.20
7834;BME280;3962;42.696;23.354;2023-02-18T03:11:18;95872.03;;;2.98;69.37
7834;BME280;3962;42.696;23.354;2023-02-18T03:13:52;95870.34;;;2.97;69.69
7834;BME280;3962;42.696;23.354;2023-02-18T03:16:34;95875.09;;;2.75;69.00
7834;BME280;3962;42.696;23.354;2023-02-18T03:19:07;95866.75;;;2.53;70.81
7834;BME280;3962;42.696;23.354;2023-02-18T03:21:45;95882.69;;;2.34;70.20
7834;BME280;3962;42.696;23.354;2023-02-18T03:24:20;95898.50;;;2.17;71.66
7834;BME280;3962;42.696;23.354;2023-02-18T03:26:55;95909.25;;;2.13;71.43
7834;BME280;3962;42.696;23.354;2023-02-18T03:29:25;95919.69;;;1.97;71.85
7834;BME280;3962;42.696;23.354;2023-02-18T03:31:58;95912.63;;;1.82;72.01
7834;BME280;3962;42.696;23.354;2023-02-18T03:37:37;95923.88;;;1.84;72.86
7834;BME280;3962;42.696;23.354;2023-02-18T03:40:09;95919.25;;;1.89;73.48
7834;BME280;3962;42.696;23.354;2023-02-18T03:42:38;95915.47;;;1.95;72.92
7834;BME280;3962;42.696;23.354;2023-02-18T03:45:25;95923.63;;;2.06;73.32
7834;BME280;3962;42.696;23.354;2023-02-18T03:47:52;95923.22;;;2.13;73.59
7834;BME280;3962;42.696;23.354;2023-02-18T03:50:20;95923.81;;;2.18;72.88
7834;BME280;3962;42.696;23.354;2023-02-18T03:52:53;95927.31;;;2.34;72.48
7834;BME280;3962;42.696;23.354;2023-02-18T03:55:29;95916.56;;;2.39;72.16
7834;BME280;3962;42.696;23.354;2023-02-18T03:58:01;95929.63;;;2.56;71.75
7834;BME280;3962;42.696;23.354;2023-02-18T04:00:36;95928.50;;;2.44;71.68
7834;BME280;3962;42.696;23.354;2023-02-18T04:03:18;95913.88;;;2.40;72.59
7834;BME280;3962;42.696;23.354;2023-02-18T04:05:56;95921.38;;;2.46;72.50
7834;BME280;3962;42.696;23.354;2023-02-18T04:08:25;95913.25;;;2.51;71.60
7834;BME280;3962;42.696;23.354;2023-02-18T04:10:53;95917.34;;;2.56;72.12
7834;BME280;3962;42.696;23.354;2023-02-18T04:13:58;95911.31;;;2.70;72.31
7834;BME280;3962;42.696;23.354;2023-02-18T04:19:49;95905.88;;;2.73;71.36
7834;BME280;3962;42.696;23.354;2023-02-18T04:22:18;95902.34;;;2.58;70.11
7834;BME280;3962;42.696;23.354;2023-02-18T04:24:49;95893.94;;;2.52;70.35
7834;BME280;3962;42.696;23.354;2023-02-18T04:27:20;95889.63;;;2.35;70.36
7834;BME280;3962;42.696;23.354;2023-02-18T04:29:53;95890.72;;;2.31;71.10
7834;BME280;3962;42.696;23.354;2023-02-18T04:32:35;95892.41;;;2.17;70.99
7834;BME280;3962;42.696;23.354;2023-02-18T04:35:24;95897.63;;;2.01;72.21
7834;BME280;3962;42.696;23.354;2023-02-18T04:37:52;95899.28;;;1.87;72.60
7834;BME280;3962;42.696;23.354;2023-02-18T04:40:29;95891.38;;;1.71;72.66
7834;BME280;3962;42.696;23.354;2023-02-18T04:42:57;95898.31;;;1.72;73.31
7834;BME280;3962;42.696;23.354;2023-02-18T04:45:26;95905.19;;;1.75;73.74
7834;BME280;3962;42.696;23.354;2023-02-18T04:47:53;95911.66;;;1.68;73.14
7834;BME280;3962;42.696;23.354;2023-02-18T04:50:22;95899.31;;;1.70;74.02
7834;BME280;3962;42.696;23.354;2023-02-18T04:52:52;95904.06;;;1.79;74.27
7834;BME280;3962;42.696;23.354;2023-02-18T04:55:30;95917.13;;;1.80;73.69
7834;BME280;3962;42.696;23.354;2023-02-18T04:57:57;95920.50;;;1.82;73.65
7834;BME280;3962;42.696;23.354;2023-02-18T05:00:34;95917.25;;;1.94;73.58
7834;BME280;3962;42.696;23.354;2023-02-18T05:03:01;95913.22;;;2.04;72.94
7834;BME280;3962;42.696;23.354;2023-02-18T05:05:28;95923.38;;;2.10;73.67
7834;BME280;3962;42.696;23.354;2023-02-18T05:07:54;95920.94;;;2.23;73.46
7834;BME280;3962;42.696;23.354;2023-02-18T05:10:21;95908.69;;;2.39;72.47
7834;BME280;3962;42.696;23.354;2023-02-18T05:12:49;95899.38;;;2.49;72.45
7834;BME280;3962;42.696;23.354;2023-02-18T05:15:16;95904.63;;;2.64;72.16
7834;BME280;3962;42.696;23.354;2023-02-18T05:17:43;95906.81;;;2.72;71.89
7834;BME280;3962;42.696;23.354;2023-02-18T05:20:10;95896.28;;;2.87;72.52
7834;BME280;3962;42.696;23.354;2023-02-18T05:22:37;95890.06;;;3.04;71.50
7834;BME280;3962;42.696;23.354;2023-02-18T05:25:05;95884.56;;;3.08;71.53
7834;BME280;3962;42.696;23.354;2023-02-18T05:27:32;95904.22;;;3.17;71.04
7834;BME280;3962;42.696;23.354;2023-02-18T05:30:00;95905.91;;;3.18;70.66
7834;BME280;3962;42.696;23.354;2023-02-18T05:32:27;95902.34;;;3.19;71.64
7834;BME280;3962;42.696;23.354;2023-02-18T05:34:54;95906.00;;;3.16;70.60
7834;BME280;3962;42.696;23.354;2023-02-18T05:37:21;95916.59;;;3.15;70.79
7834;BME280;3962;42.696;23.354;2023-02-18T05:39:47;95907.94;;;3.28;70.44
7834;BME280;3962;42.696;23.354;2023-02-18T05:42:14;95915.91;;;3.27;69.89
7834;BME280;3962;42.696;23.354;2023-02-18T05:44:41;95913.66;;;3.05;70.13
7834;BME280;3962;42.696;23.354;2023-02-18T05:47:11;95901.97;;;2.95;70.85
7834;BME280;3962;42.696;23.354;2023-02-18T05:49:40;95910.69;;;2.96;70.55
7834;BME280;3962;42.696;23.354;2023-02-18T05:52:08;95912.97;;;2.86;70.22
7834;BME280;3962;42.696;23.354;2023-02-18T05:54:36;95925.56;;;2.81;71.06
7834;BME280;3962;42.696;23.354;2023-02-18T05:57:03;95921.56;;;2.74;71.35
7834;BME280;3962;42.696;23.354;2023-02-18T05:59:30;95931.91;;;3.67;77.36
7834;BME280;3962;42.696;23.354;2023-02-18T06:01:57;95919.09;;;3.61;72.08
7834;BME280;3962;42.696;23.354;2023-02-18T06:04:26;95924.13;;;3.50;70.84
7834;BME280;3962;42.696;23.354;2023-02-18T06:06:53;95925.34;;;3.44;69.96
7834;BME280;3962;42.696;23.354;2023-02-18T06:09:20;95915.13;;;3.54;70.27
7834;BME280;3962;42.696;23.354;2023-02-18T06:11:47;95931.31;;;3.62;69.34
7834;BME280;3962;42.696;23.354;2023-02-18T06:14:13;95929.75;;;3.73;69.53
7834;BME280;3962;42.696;23.354;2023-02-18T06:16:40;95924.28;;;3.76;69.56
7834;BME280;3962;42.696;23.354;2023-02-18T06:19:07;95915.00;;;3.85;69.29
7834;BME280;3962;42.696;23.354;2023-02-18T06:21:35;95915.50;;;4.05;68.97
7834;BME280;3962;42.696;23.354;2023-02-18T06:24:02;95926.78;;;4.21;68.78
7834;BME280;3962;42.696;23.354;2023-02-18T06:26:29;95912.22;;;4.30;68.35
7834;BME280;3962;42.696;23.354;2023-02-18T06:28:56;95912.00;;;4.33;68.31
7834;BME280;3962;42.696;23.354;2023-02-18T06:31:23;95905.63;;;4.37;68.17
7834;BME280;3962;42.696;23.354;2023-02-18T06:33:50;95900.81;;;4.43;67.93
7834;BME280;3962;42.696;23.354;2023-02-18T06:36:16;95910.47;;;4.57;68.01
7834;BME280;3962;42.696;23.354;2023-02-18T06:38:45;95917.06;;;4.64;67.55
7834;BME280;3962;42.696;23.354;2023-02-18T06:41:13;95911.41;;;4.70;66.84
7834;BME280;3962;42.696;23.354;2023-02-18T06:43:40;95915.28;;;4.64;66.95
7834;BME280;3962;42.696;23.354;2023-02-18T06:46:07;95917.06;;;4.50;66.65
7834;BME280;3962;42.696;23.354;2023-02-18T06:48:34;95921.69;;;4.46;66.57
7834;BME280;3962;42.696;23.354;2023-02-18T06:51:03;95915.00;;;4.41;66.43
7834;BME280;3962;42.696;23.354;2023-02-18T06:53:31;95917.84;;;4.38;66.81
7834;BME280;3962;42.696;23.354;2023-02-18T06:55:59;95910.03;;;4.36;67.48
7834;BME280;3962;42.696;23.354;2023-02-18T06:58:26;95907.78;;;4.30;67.14
7834;BME280;3962;42.696;23.354;2023-02-18T07:00:53;95917.94;;;4.36;66.41
7834;BME280;3962;42.696;23.354;2023-02-18T07:03:20;95919.91;;;4.47;66.65
7834;BME280;3962;42.696;23.354;2023-02-18T07:05:47;95920.81;;;4.60;66.14
7834;BME280;3962;42.696;23.354;2023-02-18T07:08:14;95912.44;;;4.67;66.58
7834;BME280;3962;42.696;23.354;2023-02-18T07:10:41;95912.31;;;4.83;66.50
7834;BME280;3962;42.696;23.354;2023-02-18T07:13:09;95911.31;;;4.98;64.78
7834;BME280;3962;42.696;23.354;2023-02-18T07:15:36;95898.69;;;5.03;64.42
7834;BME280;3962;42.696;23.354;2023-02-18T07:18:03;95898.53;;;5.18;64.71
7834;BME280;3962;42.696;23.354;2023-02-18T07:20:30;95901.63;;;5.25;64.27
7834;BME280;3962;42.696;23.354;2023-02-18T07:22:57;95901.41;;;5.28;63.50
7834;BME280;3962;42.696;23.354;2023-02-18T07:25:24;95892.91;;;5.37;63.64
7834;BME280;3962;42.696;23.354;2023-02-18T07:27:51;95893.28;;;5.31;62.89
7834;BME280;3962;42.696;23.354;2023-02-18T07:30:19;95885.59;;;5.28;64.36
7834;BME280;3962;42.696;23.354;2023-02-18T07:32:46;95902.06;;;5.31;64.14
7834;BME280;3962;42.696;23.354;2023-02-18T07:35:14;95909.69;;;5.36;64.39
7834;BME280;3962;42.696;23.354;2023-02-18T07:37:43;95904.34;;;5.50;64.04
7834;BME280;3962;42.696;23.354;2023-02-18T07:40:12;95915.34;;;5.69;63.62
7834;BME280;3962;42.696;23.354;2023-02-18T07:42:39;95911.72;;;5.84;62.96
7834;BME280;3962;42.696;23.354;2023-02-18T07:45:07;95904.56;;;5.98;62.08
7834;BME280;3962;42.696;23.354;2023-02-18T07:47:36;95912.34;;;6.00;61.82
7834;BME280;3962;42.696;23.354;2023-02-18T07:50:03;95912.03;;;6.17;61.65
7834;BME280;3962;42.696;23.354;2023-02-18T07:52:31;95908.47;;;6.30;61.35
7834;BME280;3962;42.696;23.354;2023-02-18T07:54:57;95903.16;;;6.55;60.90
7834;BME280;3962;42.696;23.354;2023-02-18T07:57:24;95900.19;;;6.47;59.91
7834;BME280;3962;42.696;23.354;2023-02-18T07:59:51;95903.34;;;6.52;60.15
7834;BME280;3962;42.696;23.354;2023-02-18T08:02:20;95902.63;;;6.50;59.40
7834;BME280;3962;42.696;23.354;2023-02-18T08:04:50;95910.66;;;6.61;59.03
7834;BME280;3962;42.696;23.354;2023-02-18T08:07:18;95896.25;;;7.01;58.56
7834;BME280;3962;42.696;23.354;2023-02-18T08:09:47;95899.53;;;7.28;57.26
7834;BME280;3962;42.696;23.354;2023-02-18T08:12:15;95905.31;;;7.56;56.54
7834;BME280;3962;42.696;23.354;2023-02-18T08:14:41;95887.63;;;8.02;56.69
7834;BME280;3962;42.696;23.354;2023-02-18T08:17:08;95881.97;;;8.07;55.04
7834;BME280;3962;42.696;23.354;2023-02-18T08:19:35;95888.00;;;8.09;55.32
7834;BME280;3962;42.696;23.354;2023-02-18T08:22:06;95889.16;;;8.28;54.38
7834;BME280;3962;42.696;23.354;2023-02-18T08:24:34;95888.19;;;8.73;53.82
7834;BME280;3962;42.696;23.354;2023-02-18T08:27:03;95893.13;;;8.89;53.09
7834;BME280;3962;42.696;23.354;2023-02-18T08:29:30;95885.38;;;9.08;53.08
7834;BME280;3962;42.696;23.354;2023-02-18T08:31:56;95885.66;;;9.05;51.89
7834;BME280;3962;42.696;23.354;2023-02-18T08:34:24;95888.00;;;9.19;51.79
7834;BME280;3962;42.696;23.354;2023-02-18T08:36:50;95895.75;;;9.22;52.29
7834;BME280;3962;42.696;23.354;2023-02-18T08:39:19;95884.69;;;9.37;51.86
7834;BME280;3962;42.696;23.354;2023-02-18T08:41:46;95878.13;;;9.52;51.57
7834;BME280;3962;42.696;23.354;2023-02-18T08:44:12;95878.66;;;9.67;51.21
7834;BME280;3962;42.696;23.354;2023-02-18T08:46:39;95876.53;;;9.61;50.87
7834;BME280;3962;42.696;23.354;2023-02-18T08:49:06;95867.97;;;9.57;51.16
7834;BME280;3962;42.696;23.354;2023-02-18T08:51:33;95888.75;;;9.84;50.73
7834;BME280;3962;42.696;23.354;2023-02-18T08:54:00;95888.69;;;9.95;50.10
7834;BME280;3962;42.696;23.354;2023-02-18T08:56:28;95890.47;;;10.05;49.43
7834;BME280;3962;42.696;23.354;2023-02-18T08:58:57;95881.25;;;10.09;49.64
7834;BME280;3962;42.696;23.354;2023-02-18T09:01:24;95893.16;;;9.94;49.46
7834;BME280;3962;42.696;23.354;2023-02-18T09:03:51;95888.41;;;10.09;50.08
7834;BME280;3962;42.696;23.354;2023-02-18T09:06:17;95879.72;;;10.27;48.89
7834;BME280;3962;42.696;23.354;2023-02-18T09:08:45;95884.38;;;10.35;49.14
7834;BME280;3962;42.696;23.354;2023-02-18T09:11:11;95875.06;;;10.50;48.68
7834;BME280;3962;42.696;23.354;2023-02-18T09:13:40;95876.22;;;10.96;47.75
7834;BME280;3962;42.696;23.354;2023-02-18T09:16:09;95876.09;;;10.97;48.07
7834;BME280;3962;42.696;23.354;2023-02-18T09:18:37;95878.75;;;10.97;47.60
7834;BME280;3962;42.696;23.354;2023-02-18T09:21:05;95889.53;;;11.35;47.28
7834;BME280;3962;42.696;23.354;2023-02-18T09:23:34;95881.84;;;11.51;46.60
7834;BME280;3962;42.696;23.354;2023-02-18T09:26:03;95881.31;;;11.95;46.00
7834;BME280;3962;42.696;23.354;2023-02-18T09:28:31;95877.66;;;12.25;45.30
7834;BME280;3962;42.696;23.354;2023-02-18T09:31:04;95873.44;;;12.13;45.53
7834;BME280;3962;42.696;23.354;2023-02-18T09:33:34;95866.56;;;12.75;44.99
7834;BME280;3962;42.696;23.354;2023-02-18T09:36:01;95866.66;;;13.64;42.84
7834;BME280;3962;42.696;23.354;2023-02-18T09:38:27;95853.97;;;13.66;42.50
7834;BME280;3962;42.696;23.354;2023-02-18T09:40:56;95858.78;;;13.63;42.85
7834;BME280;3962;42.696;23.354;2023-02-18T09:43:28;95858.47;;;14.01;41.64
7834;BME280;3962;42.696;23.354;2023-02-18T09:45:58;95864.53;;;13.85;41.56
7834;BME280;3962;42.696;23.354;2023-02-18T09:48:30;95861.75;;;13.95;41.88
7834;BME280;3962;42.696;23.354;2023-02-18T09:50:58;95848.44;;;14.03;41.46
7834;BME280;3962;42.696;23.354;2023-02-18T09:53:25;95871.56;;;13.86;41.54
7834;BME280;3962;42.696;23.354;2023-02-18T09:55:53;95861.75;;;13.60;42.22
7834;BME280;3962;42.696;23.354;2023-02-18T09:58:24;95847.06;;;13.29;42.84
7834;BME280;3962;42.696;23.354;2023-02-18T10:00:58;95855.81;;;12.94;42.74
7834;BME280;3962;42.696;23.354;2023-02-18T10:03:31;95847.66;;;12.86;43.67
7834;BME280;3962;42.696;23.354;2023-02-18T10:06:00;95842.34;;;13.40;42.57
7834;BME280;3962;42.696;23.354;2023-02-18T10:08:32;95840.66;;;13.57;42.22
7834;BME280;3962;42.696;23.354;2023-02-18T10:10:59;95831.13;;;13.89;41.15
7834;BME280;3962;42.696;23.354;2023-02-18T10:13:29;95822.72;;;14.19;41.05
7834;BME280;3962;42.696;23.354;2023-02-18T10:15:56;95824.22;;;14.47;40.33
7834;BME280;3962;42.696;23.354;2023-02-18T10:18:26;95828.31;;;14.84;39.66
7834;BME280;3962;42.696;23.354;2023-02-18T10:21:02;95827.25;;;15.11;39.49
7834;BME280;3962;42.696;23.354;2023-02-18T10:23:33;95819.00;;;15.04;38.91
7834;BME280;3962;42.696;23.354;2023-02-18T10:26:05;95819.38;;;14.76;40.24
7834;BME280;3962;42.696;23.354;2023-02-18T10:28:34;95809.88;;;15.23;38.39
7834;BME280;3962;42.696;23.354;2023-02-18T10:31:04;95812.63;;;15.39;37.35
7834;BME280;3962;42.696;23.354;2023-02-18T10:33:41;95804.28;;;15.42;36.94
7834;BME280;3962;42.696;23.354;2023-02-18T10:36:24;95805.66;;;15.70;37.20
7834;BME280;3962;42.696;23.354;2023-02-18T10:39:20;95802.84;;;16.19;36.74
7834;BME280;3962;42.696;23.354;2023-02-18T10:41:57;95788.56;;;16.03;34.66
7834;BME280;3962;42.696;23.354;2023-02-18T10:44:35;95788.91;;;16.00;33.99
7834;BME280;3962;42.696;23.354;2023-02-18T10:47:11;95771.28;;;16.13;34.24
7834;BME280;3962;42.696;23.354;2023-02-18T10:49:54;95775.13;;;16.19;33.67
7834;BME280;3962;42.696;23.354;2023-02-18T10:52:24;95772.41;;;16.59;33.86
7834;BME280;3962;42.696;23.354;2023-02-18T10:54:57;95765.75;;;16.47;33.33
7834;BME280;3962;42.696;23.354;2023-02-18T10:57:25;95765.75;;;16.47;33.15
7834;BME280;3962;42.696;23.354;2023-02-18T10:59:58;95753.63;;;16.51;33.91
7834;BME280;3962;42.696;23.354;2023-02-18T11:02:27;95755.69;;;16.17;33.45
7834;BME280;3962;42.696;23.354;2023-02-18T11:04:57;95758.19;;;16.18;34.22
7834;BME280;3962;42.696;23.354;2023-02-18T11:07:31;95748.16;;;16.04;34.00
7834;BME280;3962;42.696;23.354;2023-02-18T11:10:01;95766.09;;;16.04;35.93
7834;BME280;3962;42.696;23.354;2023-02-18T11:12:41;95746.94;;;16.23;34.90
7834;BME280;3962;42.696;23.354;2023-02-18T11:15:18;95734.06;;;15.94;34.29
7834;BME280;3962;42.696;23.354;2023-02-18T11:17:48;95739.44;;;15.78;34.77
7834;BME280;3962;42.696;23.354;2023-02-18T11:20:23;95725.75;;;15.24;35.29
7834;BME280;3962;42.696;23.354;2023-02-18T11:22:56;95734.16;;;15.29;35.66
7834;BME280;3962;42.696;23.354;2023-02-18T11:25:24;95721.47;;;14.89;35.89
7834;BME280;3962;42.696;23.354;2023-02-18T11:27:54;95721.06;;;15.18;35.67
7834;BME280;3962;42.696;23.354;2023-02-18T11:30:24;95721.00;;;15.02;35.60
7834;BME280;3962;42.696;23.354;2023-02-18T11:32:55;95703.03;;;14.78;36.07
7834;BME280;3962;42.696;23.354;2023-02-18T11:35:26;95708.00;;;14.66;36.37
7834;BME280;3962;42.696;23.354;2023-02-18T11:37:58;95719.78;;;14.80;36.19
7834;BME280;3962;42.696;23.354;2023-02-18T11:40:29;95705.53;;;14.72;37.27
7834;BME280;3962;42.696;23.354;2023-02-18T11:43:03;95699.44;;;15.11;36.75
7834;BME280;3962;42.696;23.354;2023-02-18T11:45:32;95702.09;;;15.03;36.45
7834;BME280;3962;42.696;23.354;2023-02-18T11:48:00;95710.00;;;15.05;35.86
7834;BME280;3962;42.696;23.354;2023-02-18T11:50:30;95688.91;;;15.26;36.28
7834;BME280;3962;42.696;23.354;2023-02-18T11:52:59;95692.63;;;15.41;35.78
7834;BME280;3962;42.696;23.354;2023-02-18T11:55:28;95683.25;;;15.61;36.32
7834;BME280;3962;42.696;23.354;2023-02-18T11:57:59;95682.75;;;15.73;36.07
7834;BME280;3962;42.696;23.354;2023-02-18T12:00:36;95679.91;;;15.51;36.19
7834;BME280;3962;42.696;23.354;2023-02-18T12:03:08;95670.00;;;15.43;36.85
7834;BME280;3962;42.696;23.354;2023-02-18T12:05:39;95668.16;;;15.76;36.44
7834;BME280;3962;42.696;23.354;2023-02-18T12:08:13;95662.75;;;16.08;36.07
7834;BME280;3962;42.696;23.354;2023-02-18T12:10:46;95658.84;;;16.26;35.85
7834;BME280;3962;42.696;23.354;2023-02-18T12:13:22;95659.97;;;16.48;35.64
7834;BME280;3962;42.696;23.354;2023-02-18T12:15:57;95658.47;;;16.45;36.42
7834;BME280;3962;42.696;23.354;2023-02-18T12:18:41;95649.81;;;16.66;35.88
7834;BME280;3962;42.696;23.354;2023-02-18T12:21:27;95643.22;;;16.30;36.07
7834;BME280;3962;42.696;23.354;2023-02-18T12:24:02;95649.47;;;16.14;36.91
7834;BME280;3962;42.696;23.354;2023-02-18T12:26:40;95650.97;;;16.17;36.91
7834;BME280;3962;42.696;23.354;2023-02-18T12:29:23;95628.03;;;15.98;37.06
7834;BME280;3962;42.696;23.354;2023-02-18T12:32:11;95630.41;;;16.01;37.50
7834;BME280;3962;42.696;23.354;2023-02-18T12:35:02;95637.53;;;16.25;37.19
7834;BME280;3962;42.696;23.354;2023-02-18T12:38:00;95623.44;;;16.23;37.38
7834;BME280;3962;42.696;23.354;2023-02-18T12:40:42;95615.56;;;16.21;37.02
7834;BME280;3962;42.696;23.354;2023-02-18T12:43:20;95613.97;;;16.35;37.27
7834;BME280;3962;42.696;23.354;2023-02-18T12:46:00;95608.13;;;16.31;37.10
7834;BME280;3962;42.696;23.354;2023-02-18T12:49:08;95605.84;;;16.20;37.69
7834;BME280;3962;42.696;23.354;2023-02-18T12:51:48;95588.19;;;16.26;37.55
7834;BME280;3962;42.696;23.354;2023-02-18T12:57:42;95595.31;;;16.80;37.16
7834;BME280;3962;42.696;23.354;2023-02-18T13:00:29;95605.28;;;17.02;35.63
7834;BME280;3962;42.696;23.354;2023-02-18T13:03:17;95598.44;;;17.14;35.95
7834;BME280;3962;42.696;23.354;2023-02-18T13:05:56;95610.00;;;17.45;35.77
7834;BME280;3962;42.696;23.354;2023-02-18T13:08:37;95602.00;;;17.37;35.39
7834;BME280;3962;42.696;23.354;2023-02-18T13:11:17;95597.50;;;17.29;34.67
7834;BME280;3962;42.696;23.354;2023-02-18T13:13:51;95594.50;;;17.24;34.14
7834;BME280;3962;42.696;23.354;2023-02-18T13:16:22;95601.06;;;16.99;34.76
7834;BME280;3962;42.696;23.354;2023-02-18T13:18:58;95593.81;;;17.08;34.76
7834;BME280;3962;42.696;23.354;2023-02-18T13:21:27;95583.75;;;17.02;35.16
7834;BME280;3962;42.696;23.354;2023-02-18T13:23:58;95587.09;;;17.04;35.22
7834;BME280;3962;42.696;23.354;2023-02-18T13:26:28;95594.25;;;16.89;36.51
7834;BME280;3962;42.696;23.354;2023-02-18T13:29:09;95588.72;;;16.90;36.62
7834;BME280;3962;42.696;23.354;2023-02-18T13:31:46;95588.59;;;16.53;37.18
7834;BME280;3962;42.696;23.354;2023-02-18T13:34:24;95596.66;;;16.53;37.59
7834;BME280;3962;42.696;23.354;2023-02-18T13:37:01;95600.44;;;16.28;37.75
7834;BME280;3962;42.696;23.354;2023-02-18T13:39:32;95592.03;;;16.23;38.02
7834;BME280;3962;42.696;23.354;2023-02-18T13:42:19;95601.34;;;16.13;37.67
7834;BME280;3962;42.696;23.354;2023-02-18T13:45:23;95592.00;;;15.93;38.23
7834;BME280;3962;42.696;23.354;2023-02-18T13:47:51;95598.81;;;16.11;38.20
7834;BME280;3962;42.696;23.354;2023-02-18T13:50:28;95597.91;;;16.27;37.98
7834;BME280;3962;42.696;23.354;2023-02-18T13:53:22;95588.47;;;15.92;38.34
7834;BME280;3962;42.696;23.354;2023-02-18T13:55:56;95589.34;;;15.77;38.54
7834;BME280;3962;42.696;23.354;2023-02-18T13:58:29;95594.88;;;15.83;38.73
7834;BME280;3962;42.696;23.354;2023-02-18T14:01:01;95581.97;;;15.79;38.57
7834;BME280;3962;42.696;23.354;2023-02-18T14:03:35;95589.56;;;15.51;39.14
7834;BME280;3962;42.696;23.354;2023-02-18T14:06:12;95592.09;;;15.53;39.18
7834;BME280;3962;42.696;23.354;2023-02-18T14:08:40;95586.88;;;15.27;39.46
7834;BME280;3962;42.696;23.354;2023-02-18T14:11:31;95573.31;;;15.13;39.64
7834;BME280;3962;42.696;23.354;2023-02-18T14:14:26;95586.38;;;15.16;39.57
7834;BME280;3962;42.696;23.354;2023-02-18T14:25:56;95594.75;;;15.05;39.69
7834;BME280;3962;42.696;23.354;2023-02-18T14:28:40;95593.41;;;15.17;39.31